sensor_id;sensor_type;location;lat;lon;timestamp;pressure;altitude;pressure_sealevel;temperature;humidity
72116;BME280;59991;52.140;5.428;2022-08-21T00:00:28;101751.00;;;15.15;78.46
72116;BME280;59991;52.140;5.428;2022-08-21T00:01:02;101754.91;;;15.14;78.44
72116;BME280;59991;52.140;5.428;2022-08-21T00:01:37;101755.69;;;15.15;78.39
72116;BME280;59991;52.140;5.428;2022-08-21T00:02:16;101754.13;;;15.17;78.64
72116;BME280;59991;52.140;5.428;2022-08-21T00:02:52;101754.50;;;15.12;78.74
72116;BME280;59991;52.140;5.428;2022-08-21T00:03:23;101759.22;;;15.15;78.86
72116;BME280;59991;52.140;5.428;2022-08-21T00:04:13;101761.19;;;15.15;79.20
72116;BME280;59991;52.140;5.428;2022-08-21T00:04:53;101758.03;;;15.13;78.72
72116;BME280;59991;52.140;5.428;2022-08-21T00:05:28;101759.22;;;15.12;78.59
72116;BME280;59991;52.140;5.428;2022-08-21T00:05:59;101757.63;;;15.11;78.90
72116;BME280;59991;52.140;5.428;2022-08-21T00:06:32;101766.25;;;15.09;78.66
72116;BME280;59991;52.140;5.428;2022-08-21T00:07:55;101758.41;;;15.08;78.96
72116;BME280;59991;52.140;5.428;2022-08-21T00:08:27;101757.59;;;15.04;78.98
72116;BME280;59991;52.140;5.428;2022-08-21T00:09:18;101761.91;;;15.05;78.99
72116;BME280;59991;52.140;5.428;2022-08-21T00:09:49;101767.41;;;15.05;78.58
72116;BME280;59991;52.140;5.428;2022-08-21T00:10:22;101766.63;;;15.04;78.40
72116;BME280;59991;52.140;5.428;2022-08-21T00:10:54;101764.25;;;15.03;78.65
72116;BME280;59991;52.140;5.428;2022-08-21T00:11:26;101756.41;;;15.01;79.07
72116;BME280;59991;52.140;5.428;2022-08-21T00:11:58;101760.34;;;15.00;78.68
72116;BME280;59991;52.140;5.428;2022-08-21T00:12:30;101762.69;;;15.02;79.21
72116;BME280;59991;52.140;5.428;2022-08-21T00:13:03;101762.69;;;15.02;79.41
72116;BME280;59991;52.140;5.428;2022-08-21T00:13:36;101756.41;;;15.01;78.97
72116;BME280;59991;52.140;5.428;2022-08-21T00:14:09;101764.63;;;15.01;79.00
72116;BME280;59991;52.140;5.428;2022-08-21T00:14:40;101756.03;;;14.99;79.52
72116;BME280;59991;52.140;5.428;2022-08-21T00:15:19;101766.22;;;14.99;79.06
72116;BME280;59991;52.140;5.428;2022-08-21T00:16:09;101759.16;;;14.98;79.33
72116;BME280;59991;52.140;5.428;2022-08-21T00:16:41;101757.56;;;14.97;79.09
72116;BME280;59991;52.140;5.428;2022-08-21T00:17:12;101760.69;;;14.95;79.24
72116;BME280;59991;52.140;5.428;2022-08-21T00:18:33;101763.03;;;14.93;79.09
72116;BME280;59991;52.140;5.428;2022-08-21T00:19:06;101764.63;;;14.94;78.87
72116;BME280;59991;52.140;5.428;2022-08-21T00:19:38;101755.97;;;14.92;79.10
72116;BME280;59991;52.140;5.428;2022-08-21T00:20:11;101763.03;;;14.93;79.54
72116;BME280;59991;52.140;5.428;2022-08-21T00:20:44;101766.97;;;14.92;79.55
72116;BME280;59991;52.140;5.428;2022-08-21T00:21:16;101761.06;;;14.90;79.52
72116;BME280;59991;52.140;5.428;2022-08-21T00:21:47;101757.13;;;14.91;79.34
72116;BME280;59991;52.140;5.428;2022-08-21T00:22:38;101762.25;;;14.93;79.43
72116;BME280;59991;52.140;5.428;2022-08-21T00:23:10;101765.38;;;14.91;79.33
72116;BME280;59991;52.140;5.428;2022-08-21T00:23:43;101757.94;;;14.92;78.99
72116;BME280;59991;52.140;5.428;2022-08-21T00:24:14;101763.81;;;14.90;79.44
72116;BME280;59991;52.140;5.428;2022-08-21T00:24:46;101755.56;;;14.90;79.18
72116;BME280;59991;52.140;5.428;2022-08-21T00:25:17;101761.84;;;14.91;79.12
72116;BME280;59991;52.140;5.428;2022-08-21T00:25:54;101757.91;;;14.88;79.24
72116;BME280;59991;52.140;5.428;2022-08-21T00:26:26;101758.69;;;14.89;79.32
72116;BME280;59991;52.140;5.428;2022-08-21T00:26:57;101760.28;;;14.90;79.71
72116;BME280;59991;52.140;5.428;2022-08-21T00:27:30;101756.72;;;14.89;79.31
72116;BME280;59991;52.140;5.428;2022-08-21T00:28:51;101757.91;;;14.88;79.57
72116;BME280;59991;52.140;5.428;2022-08-21T00:29:23;101750.03;;;14.86;79.36
72116;BME280;59991;52.140;5.428;2022-08-21T00:31:02;101761.03;;;14.86;79.00
72116;BME280;59991;52.140;5.428;2022-08-21T00:31:35;101761.41;;;14.85;78.85
72116;BME280;59991;52.140;5.428;2022-08-21T00:32:07;101757.09;;;14.84;79.27
72116;BME280;59991;52.140;5.428;2022-08-21T00:32:39;101759.06;;;14.83;79.39
72116;BME280;59991;52.140;5.428;2022-08-21T00:33:47;101753.56;;;14.83;79.43
72116;BME280;59991;52.140;5.428;2022-08-21T00:34:18;101755.50;;;14.83;79.71
72116;BME280;59991;52.140;5.428;2022-08-21T00:35:11;101752.38;;;14.81;79.84
72116;BME280;59991;52.140;5.428;2022-08-21T00:35:43;101749.25;;;14.79;79.42
72116;BME280;59991;52.140;5.428;2022-08-21T00:36:15;101756.69;;;14.78;79.70
72116;BME280;59991;52.140;5.428;2022-08-21T00:36:46;101748.84;;;14.77;79.26
72116;BME280;59991;52.140;5.428;2022-08-21T00:37:18;101746.88;;;14.77;79.47
72116;BME280;59991;52.140;5.428;2022-08-21T00:37:50;101755.50;;;14.76;79.67
72116;BME280;59991;52.140;5.428;2022-08-21T00:38:21;101750.00;;;14.76;79.42
72116;BME280;59991;52.140;5.428;2022-08-21T00:38:53;101748.03;;;14.76;79.67
72116;BME280;59991;52.140;5.428;2022-08-21T00:39:43;101749.59;;;14.74;79.41
72116;BME280;59991;52.140;5.428;2022-08-21T00:40:19;101750.00;;;14.76;79.40
72116;BME280;59991;52.140;5.428;2022-08-21T00:40:54;101750.00;;;14.76;79.25
72116;BME280;59991;52.140;5.428;2022-08-21T00:41:26;101751.94;;;14.72;79.81
72116;BME280;59991;52.140;5.428;2022-08-21T00:42:09;101747.59;;;14.71;79.40
72116;BME280;59991;52.140;5.428;2022-08-21T00:42:41;101746.44;;;14.72;79.67
72116;BME280;59991;52.140;5.428;2022-08-21T00:43:16;101747.22;;;14.72;79.25
72116;BME280;59991;52.140;5.428;2022-08-21T00:43:48;101747.59;;;14.71;79.24
72116;BME280;59991;52.140;5.428;2022-08-21T00:44:19;101747.59;;;14.71;79.76
72116;BME280;59991;52.140;5.428;2022-08-21T00:44:51;101747.19;;;14.69;79.93
72116;BME280;59991;52.140;5.428;2022-08-21T00:45:23;101738.16;;;14.65;79.72
72116;BME280;59991;52.140;5.428;2022-08-21T00:45:55;101753.06;;;14.67;80.03
72116;BME280;59991;52.140;5.428;2022-08-21T00:46:27;101742.88;;;14.68;80.17
72116;BME280;59991;52.140;5.428;2022-08-21T00:47:18;101749.91;;;14.65;79.48
72116;BME280;59991;52.140;5.428;2022-08-21T00:47:51;101748.34;;;14.64;79.71
72116;BME280;59991;52.140;5.428;2022-08-21T00:48:23;101745.22;;;14.66;79.93
72116;BME280;59991;52.140;5.428;2022-08-21T00:48:55;101743.25;;;14.66;79.83
72116;BME280;59991;52.140;5.428;2022-08-21T00:49:29;101740.91;;;14.65;79.98
72116;BME280;59991;52.140;5.428;2022-08-21T00:50:01;101744.81;;;14.64;79.90
72116;BME280;59991;52.140;5.428;2022-08-21T00:50:35;101743.63;;;14.65;80.09
72116;BME280;59991;52.140;5.428;2022-08-21T00:51:17;101749.50;;;14.63;80.21
72116;BME280;59991;52.140;5.428;2022-08-21T00:51:55;101754.63;;;14.65;79.76
72116;BME280;59991;52.140;5.428;2022-08-21T00:52:32;101749.13;;;14.61;80.35
72116;BME280;59991;52.140;5.428;2022-08-21T00:53:07;101749.13;;;14.65;79.76
72116;BME280;59991;52.140;5.428;2022-08-21T00:53:42;101749.13;;;14.65;79.83
72116;BME280;59991;52.140;5.428;2022-08-21T00:54:24;101751.47;;;14.63;79.84
72116;BME280;59991;52.140;5.428;2022-08-21T00:54:58;101748.34;;;14.64;80.12
72116;BME280;59991;52.140;5.428;2022-08-21T00:55:33;101747.97;;;14.62;80.18
72116;BME280;59991;52.140;5.428;2022-08-21T00:56:07;101751.47;;;14.63;80.16
72116;BME280;59991;52.140;5.428;2022-08-21T00:56:41;101747.56;;;14.60;79.77
72116;BME280;59991;52.140;5.428;2022-08-21T00:57:24;101750.69;;;14.59;80.27
72116;BME280;59991;52.140;5.428;2022-08-21T00:57:59;101752.25;;;14.60;80.22
72116;BME280;59991;52.140;5.428;2022-08-21T00:58:32;101752.63;;;14.58;80.67
72116;BME280;59991;52.140;5.428;2022-08-21T00:59:04;101748.69;;;14.56;80.41
72116;BME280;59991;52.140;5.428;2022-08-21T00:59:38;101755.38;;;14.58;79.90
72116;BME280;59991;52.140;5.428;2022-08-21T01:00:15;101751.06;;;14.57;80.20
72116;BME280;59991;52.140;5.428;2022-08-21T01:00:49;101754.19;;;14.56;79.83
72116;BME280;59991;52.140;5.428;2022-08-21T01:01:21;101754.19;;;14.56;80.14
72116;BME280;59991;52.140;5.428;2022-08-21T01:01:53;101756.16;;;14.55;79.88
72116;BME280;59991;52.140;5.428;2022-08-21T01:02:42;101747.91;;;14.55;79.72
72116;BME280;59991;52.140;5.428;2022-08-21T01:03:17;101753.00;;;14.53;79.67
72116;BME280;59991;52.140;5.428;2022-08-21T01:03:54;101745.94;;;14.52;79.81
72116;BME280;59991;52.140;5.428;2022-08-21T01:04:26;101750.63;;;14.51;79.71
72116;BME280;59991;52.140;5.428;2022-08-21T01:05:48;101749.84;;;14.51;80.03
72116;BME280;59991;52.140;5.428;2022-08-21T01:06:20;101743.94;;;14.49;80.22
72116;BME280;59991;52.140;5.428;2022-08-21T01:06:52;101749.81;;;14.47;79.86
72116;BME280;59991;52.140;5.428;2022-08-21T01:07:43;101742.34;;;14.48;79.81
72116;BME280;59991;52.140;5.428;2022-08-21T01:08:16;101749.00;;;14.47;79.93
72116;BME280;59991;52.140;5.428;2022-08-21T01:08:49;101743.16;;;14.48;79.88
72116;BME280;59991;52.140;5.428;2022-08-21T01:09:20;101751.38;;;14.48;80.22
72116;BME280;59991;52.140;5.428;2022-08-21T01:09:52;101740.00;;;14.43;79.74
72116;BME280;59991;52.140;5.428;2022-08-21T01:10:23;101743.91;;;14.45;79.91
72116;BME280;59991;52.140;5.428;2022-08-21T01:10:56;101743.91;;;14.45;80.56
72116;BME280;59991;52.140;5.428;2022-08-21T01:11:28;101738.78;;;14.44;80.22
72116;BME280;59991;52.140;5.428;2022-08-21T01:11:59;101748.59;;;14.41;80.33
72116;BME280;59991;52.140;5.428;2022-08-21T01:12:50;101748.22;;;14.43;80.19
72116;BME280;59991;52.140;5.428;2022-08-21T01:13:23;101739.94;;;14.39;80.71
72116;BME280;59991;52.140;5.428;2022-08-21T01:13:55;101736.84;;;14.41;80.67
72116;BME280;59991;52.140;5.428;2022-08-21T01:14:27;101735.63;;;14.38;80.64
72116;BME280;59991;52.140;5.428;2022-08-21T01:15:02;101737.97;;;14.40;80.48
72116;BME280;59991;52.140;5.428;2022-08-21T01:15:37;101732.84;;;14.35;80.16
72116;BME280;59991;52.140;5.428;2022-08-21T01:16:09;101732.88;;;14.38;79.73
72116;BME280;59991;52.140;5.428;2022-08-21T01:16:43;101737.56;;;14.38;80.44
72116;BME280;59991;52.140;5.428;2022-08-21T01:17:17;101742.25;;;14.37;79.88
72116;BME280;59991;52.140;5.428;2022-08-21T01:17:50;101735.59;;;14.35;80.70
72116;BME280;59991;52.140;5.428;2022-08-21T01:18:22;101735.59;;;14.35;80.62
72116;BME280;59991;52.140;5.428;2022-08-21T01:18:54;101731.63;;;14.32;80.11
72116;BME280;59991;52.140;5.428;2022-08-21T01:19:26;101729.69;;;14.33;79.89
72116;BME280;59991;52.140;5.428;2022-08-21T01:19:59;101733.22;;;14.33;80.18
72116;BME280;59991;52.140;5.428;2022-08-21T01:20:31;101737.53;;;14.34;80.37
72116;BME280;59991;52.140;5.428;2022-08-21T01:21:06;101737.94;;;14.36;80.42
72116;BME280;59991;52.140;5.428;2022-08-21T01:21:38;101738.69;;;14.33;80.32
72116;BME280;59991;52.140;5.428;2022-08-21T01:22:27;101744.22;;;14.37;80.02
72116;BME280;59991;52.140;5.428;2022-08-21T01:23:17;101739.13;;;14.35;80.15
72116;BME280;59991;52.140;5.428;2022-08-21T01:23:52;101730.88;;;14.35;80.12
72116;BME280;59991;52.140;5.428;2022-08-21T01:24:23;101729.69;;;14.33;80.58
72116;BME280;59991;52.140;5.428;2022-08-21T01:24:55;101736.75;;;14.34;80.25
72116;BME280;59991;52.140;5.428;2022-08-21T01:25:26;101745.75;;;14.34;80.61
72116;BME280;59991;52.140;5.428;2022-08-21T01:25:58;101744.19;;;14.33;80.72
72116;BME280;59991;52.140;5.428;2022-08-21T01:26:31;101740.28;;;14.34;80.61
72116;BME280;59991;52.140;5.428;2022-08-21T01:27:05;101750.47;;;14.34;80.84
72116;BME280;59991;52.140;5.428;2022-08-21T01:27:36;101742.63;;;14.32;80.65
72116;BME280;59991;52.140;5.428;2022-08-21T01:28:12;101741.44;;;14.33;80.21
72116;BME280;59991;52.140;5.428;2022-08-21T01:28:50;101744.56;;;14.32;80.95
72116;BME280;59991;52.140;5.428;2022-08-21T01:29:43;101746.91;;;14.30;80.39
72116;BME280;59991;52.140;5.428;2022-08-21T01:30:37;101750.81;;;14.29;80.62
72116;BME280;59991;52.140;5.428;2022-08-21T01:31:12;101743.72;;;14.24;80.60
72116;BME280;59991;52.140;5.428;2022-08-21T01:31:45;101742.16;;;14.23;80.94
72116;BME280;59991;52.140;5.428;2022-08-21T01:32:35;101755.47;;;14.25;80.37
72116;BME280;59991;52.140;5.428;2022-08-21T01:33:06;101743.34;;;14.22;80.75
72116;BME280;59991;52.140;5.428;2022-08-21T01:33:38;101748.03;;;14.22;80.47
72116;BME280;59991;52.140;5.428;2022-08-21T01:34:10;101743.72;;;14.24;80.38
72116;BME280;59991;52.140;5.428;2022-08-21T01:34:44;101746.47;;;14.24;80.88
72116;BME280;59991;52.140;5.428;2022-08-21T01:35:17;101751.94;;;14.24;80.94
72116;BME280;59991;52.140;5.428;2022-08-21T01:35:48;101747.25;;;14.25;80.41
72116;BME280;59991;52.140;5.428;2022-08-21T01:36:20;101739.81;;;14.22;80.23
72116;BME280;59991;52.140;5.428;2022-08-21T01:36:51;101742.97;;;14.24;81.07
72116;BME280;59991;52.140;5.428;2022-08-21T01:37:23;101734.31;;;14.22;80.54
72116;BME280;59991;52.140;5.428;2022-08-21T01:37:54;101741.38;;;14.23;80.62
72116;BME280;59991;52.140;5.428;2022-08-21T01:38:26;101738.22;;;14.24;80.47
72116;BME280;59991;52.140;5.428;2022-08-21T01:38:59;101740.59;;;14.22;80.89
72116;BME280;59991;52.140;5.428;2022-08-21T01:39:31;101736.66;;;14.20;80.08
72116;BME280;59991;52.140;5.428;2022-08-21T01:40:05;101739.44;;;14.23;80.71
72116;BME280;59991;52.140;5.428;2022-08-21T01:40:37;101740.97;;;14.24;80.23
72116;BME280;59991;52.140;5.428;2022-08-21T01:41:09;101734.31;;;14.22;80.48
72116;BME280;59991;52.140;5.428;2022-08-21T01:41:40;101741.75;;;14.25;80.48
72116;BME280;59991;52.140;5.428;2022-08-21T01:42:13;101736.69;;;14.23;81.12
72116;BME280;59991;52.140;5.428;2022-08-21T01:42:45;101735.91;;;14.23;80.72
72116;BME280;59991;52.140;5.428;2022-08-21T01:43:17;101735.47;;;14.21;80.86
72116;BME280;59991;52.140;5.428;2022-08-21T01:43:54;101726.47;;;14.20;80.13
72116;BME280;59991;52.140;5.428;2022-08-21T01:44:25;101740.97;;;14.24;80.51
72116;BME280;59991;52.140;5.428;2022-08-21T01:44:57;101743.34;;;14.22;81.09
72116;BME280;59991;52.140;5.428;2022-08-21T01:45:46;101740.22;;;14.24;80.54
72116;BME280;59991;52.140;5.428;2022-08-21T01:46:18;101742.16;;;14.23;80.71
72116;BME280;59991;52.140;5.428;2022-08-21T01:46:51;101739.44;;;14.23;80.72
72116;BME280;59991;52.140;5.428;2022-08-21T01:47:22;101729.22;;;14.20;81.08
72116;BME280;59991;52.140;5.428;2022-08-21T01:47:54;101733.16;;;14.23;80.53
72116;BME280;59991;52.140;5.428;2022-08-21T01:48:25;101731.94;;;14.20;81.14
72116;BME280;59991;52.140;5.428;2022-08-21T01:48:58;101739.44;;;14.23;80.98
72116;BME280;59991;52.140;5.428;2022-08-21T01:49:30;101735.91;;;14.23;80.49
72116;BME280;59991;52.140;5.428;2022-08-21T01:50:05;101737.84;;;14.22;81.30
72116;BME280;59991;52.140;5.428;2022-08-21T01:50:37;101729.59;;;14.18;80.34
72116;BME280;59991;52.140;5.428;2022-08-21T01:51:08;101729.22;;;14.20;80.67
72116;BME280;59991;52.140;5.428;2022-08-21T01:51:40;101731.94;;;14.20;80.73
72116;BME280;59991;52.140;5.428;2022-08-21T01:52:11;101739.00;;;14.21;80.60
72116;BME280;59991;52.140;5.428;2022-08-21T01:52:43;101736.28;;;14.21;81.34
72116;BME280;59991;52.140;5.428;2022-08-21T01:53:34;101731.94;;;14.20;80.98
72116;BME280;59991;52.140;5.428;2022-08-21T01:54:07;101737.03;;;14.18;80.86
72116;BME280;59991;52.140;5.428;2022-08-21T01:54:38;101729.97;;;14.17;81.18
72116;BME280;59991;52.140;5.428;2022-08-21T01:55:14;101735.41;;;14.13;81.65
72116;BME280;59991;52.140;5.428;2022-08-21T01:55:47;101732.25;;;14.11;81.21
72116;BME280;59991;52.140;5.428;2022-08-21T01:56:18;101734.63;;;14.13;81.38
72116;BME280;59991;52.140;5.428;2022-08-21T01:56:52;101735.41;;;14.13;81.39
72116;BME280;59991;52.140;5.428;2022-08-21T01:57:24;101737.78;;;14.15;80.93
72116;BME280;59991;52.140;5.428;2022-08-21T01:57:57;101731.47;;;14.11;81.33
72116;BME280;59991;52.140;5.428;2022-08-21T01:58:29;101732.66;;;14.13;80.87
72116;BME280;59991;52.140;5.428;2022-08-21T01:59:18;101728.34;;;14.12;81.18
72116;BME280;59991;52.140;5.428;2022-08-21T01:59:50;101736.94;;;14.11;80.88
72116;BME280;59991;52.140;5.428;2022-08-21T02:00:22;101728.31;;;14.09;81.28
72116;BME280;59991;52.140;5.428;2022-08-21T02:00:56;101734.22;;;14.11;80.79
72116;BME280;59991;52.140;5.428;2022-08-21T02:01:28;101730.69;;;14.10;81.10
72116;BME280;59991;52.140;5.428;2022-08-21T02:02:00;101732.25;;;14.11;80.70
72116;BME280;59991;52.140;5.428;2022-08-21T02:02:31;101731.47;;;14.11;81.14
72116;BME280;59991;52.140;5.428;2022-08-21T02:03:03;101727.53;;;14.08;81.04
72116;BME280;59991;52.140;5.428;2022-08-21T02:05:15;101729.47;;;14.08;80.82
72116;BME280;59991;52.140;5.428;2022-08-21T02:05:47;101728.69;;;14.04;81.11
72116;BME280;59991;52.140;5.428;2022-08-21T02:06:18;101732.22;;;14.04;81.72
72116;BME280;59991;52.140;5.428;2022-08-21T02:07:08;101732.97;;;14.05;80.81
72116;BME280;59991;52.140;5.428;2022-08-21T02:07:43;101731.81;;;14.06;81.66
72116;BME280;59991;52.140;5.428;2022-08-21T02:08:15;101728.69;;;14.04;81.04
72116;BME280;59991;52.140;5.428;2022-08-21T02:08:47;101727.09;;;14.03;81.52
72116;BME280;59991;52.140;5.428;2022-08-21T02:09:18;101725.53;;;14.05;81.20
72116;BME280;59991;52.140;5.428;2022-08-21T02:09:50;101730.22;;;14.05;81.38
72116;BME280;59991;52.140;5.428;2022-08-21T02:10:30;101721.63;;;14.03;81.25
72116;BME280;59991;52.140;5.428;2022-08-21T02:11:02;101732.97;;;14.05;81.25
72116;BME280;59991;52.140;5.428;2022-08-21T02:11:34;101727.09;;;14.03;81.21
72116;BME280;59991;52.140;5.428;2022-08-21T02:12:24;101726.72;;;14.04;81.78
72116;BME280;59991;52.140;5.428;2022-08-21T02:12:56;101724.00;;;14.04;81.63
72116;BME280;59991;52.140;5.428;2022-08-21T02:13:28;101715.75;;;14.04;81.48
72116;BME280;59991;52.140;5.428;2022-08-21T02:13:59;101729.47;;;14.04;81.39
72116;BME280;59991;52.140;5.428;2022-08-21T02:14:31;101723.19;;;14.04;81.36
72116;BME280;59991;52.140;5.428;2022-08-21T02:15:04;101726.72;;;14.04;81.12
72116;BME280;59991;52.140;5.428;2022-08-21T02:16:26;101720.06;;;14.02;81.48
72116;BME280;59991;52.140;5.428;2022-08-21T02:17:00;101718.47;;;14.01;81.75
72116;BME280;59991;52.140;5.428;2022-08-21T02:17:55;101722.78;;;14.02;81.83
72116;BME280;59991;52.140;5.428;2022-08-21T02:18:28;101730.22;;;14.01;81.41
72116;BME280;59991;52.140;5.428;2022-08-21T02:19:01;101717.69;;;14.00;81.52
72116;BME280;59991;52.140;5.428;2022-08-21T02:19:32;101723.53;;;13.99;81.29
72116;BME280;59991;52.140;5.428;2022-08-21T02:20:16;101730.59;;;14.00;81.55
72116;BME280;59991;52.140;5.428;2022-08-21T02:20:49;101720.81;;;13.99;81.58
72116;BME280;59991;52.140;5.428;2022-08-21T02:21:26;101723.13;;;13.97;81.22
72116;BME280;59991;52.140;5.428;2022-08-21T02:22:15;101719.59;;;13.96;81.76
72116;BME280;59991;52.140;5.428;2022-08-21T02:23:37;101719.19;;;13.94;81.65
72116;BME280;59991;52.140;5.428;2022-08-21T02:24:09;101721.13;;;13.94;81.23
72116;BME280;59991;52.140;5.428;2022-08-21T02:24:40;101714.84;;;13.90;81.81
72116;BME280;59991;52.140;5.428;2022-08-21T02:25:26;101723.09;;;13.93;81.56
72116;BME280;59991;52.140;5.428;2022-08-21T02:25:59;101721.50;;;13.92;81.88
72116;BME280;59991;52.140;5.428;2022-08-21T02:26:31;101722.69;;;13.91;81.72
72116;BME280;59991;52.140;5.428;2022-08-21T02:27:03;101721.88;;;13.91;82.04
72116;BME280;59991;52.140;5.428;2022-08-21T02:27:42;101715.63;;;13.90;81.66
72116;BME280;59991;52.140;5.428;2022-08-21T02:28:14;101713.66;;;13.91;81.79
72116;BME280;59991;52.140;5.428;2022-08-21T02:28:46;101713.25;;;13.89;82.02
72116;BME280;59991;52.140;5.428;2022-08-21T02:29:17;101714.03;;;13.89;81.93
72116;BME280;59991;52.140;5.428;2022-08-21T02:29:49;101714.84;;;13.90;81.58
72116;BME280;59991;52.140;5.428;2022-08-21T02:30:43;101721.09;;;13.90;82.11
72116;BME280;59991;52.140;5.428;2022-08-21T02:31:14;101713.63;;;13.87;81.55
72116;BME280;59991;52.140;5.428;2022-08-21T02:31:46;101710.50;;;13.89;81.49
72116;BME280;59991;52.140;5.428;2022-08-21T02:32:17;101716.00;;;13.89;81.83
72116;BME280;59991;52.140;5.428;2022-08-21T02:32:49;101711.25;;;13.86;81.33
72116;BME280;59991;52.140;5.428;2022-08-21T02:33:20;101710.09;;;13.87;81.50
72116;BME280;59991;52.140;5.428;2022-08-21T02:33:52;101705.81;;;13.89;81.23
72116;BME280;59991;52.140;5.428;2022-08-21T02:34:23;101712.88;;;13.90;81.83
72116;BME280;59991;52.140;5.428;2022-08-21T02:34:59;101711.31;;;13.89;81.51
72116;BME280;59991;52.140;5.428;2022-08-21T02:35:31;101711.69;;;13.88;81.42
72116;BME280;59991;52.140;5.428;2022-08-21T02:36:03;101713.63;;;13.87;81.84
72116;BME280;59991;52.140;5.428;2022-08-21T02:36:52;101709.72;;;13.85;81.30
72116;BME280;59991;52.140;5.428;2022-08-21T02:37:30;101711.25;;;13.86;81.81
72116;BME280;59991;52.140;5.428;2022-08-21T02:38:05;101705.41;;;13.83;82.02
72116;BME280;59991;52.140;5.428;2022-08-21T02:38:43;101708.13;;;13.83;81.40
72116;BME280;59991;52.140;5.428;2022-08-21T02:39:15;101710.47;;;13.81;81.98
72116;BME280;59991;52.140;5.428;2022-08-21T02:39:59;101704.19;;;13.81;81.88
72116;BME280;59991;52.140;5.428;2022-08-21T02:40:34;101708.50;;;13.82;81.86
72116;BME280;59991;52.140;5.428;2022-08-21T02:41:13;101708.88;;;13.80;81.82
72116;BME280;59991;52.140;5.428;2022-08-21T02:41:45;101708.09;;;13.80;81.72
72116;BME280;59991;52.140;5.428;2022-08-21T02:42:35;101708.88;;;13.80;81.89
72116;BME280;59991;52.140;5.428;2022-08-21T02:43:07;101708.88;;;13.80;81.52
72116;BME280;59991;52.140;5.428;2022-08-21T02:43:41;101711.63;;;13.80;81.33
72116;BME280;59991;52.140;5.428;2022-08-21T02:44:13;101704.16;;;13.77;82.20
72116;BME280;59991;52.140;5.428;2022-08-21T02:44:44;101708.06;;;13.76;81.51
72116;BME280;59991;52.140;5.428;2022-08-21T02:45:35;101702.22;;;13.78;81.77
72116;BME280;59991;52.140;5.428;2022-08-21T02:46:09;101704.56;;;13.79;81.61
72116;BME280;59991;52.140;5.428;2022-08-21T02:46:41;101697.50;;;13.78;81.74
72116;BME280;59991;52.140;5.428;2022-08-21T02:47:13;101699.44;;;13.74;81.52
72116;BME280;59991;52.140;5.428;2022-08-21T02:47:52;101703.38;;;13.77;82.01
72116;BME280;59991;52.140;5.428;2022-08-21T02:48:41;101705.31;;;13.76;82.11
72116;BME280;59991;52.140;5.428;2022-08-21T02:49:13;101703.38;;;13.77;81.66
72116;BME280;59991;52.140;5.428;2022-08-21T02:49:44;101697.09;;;13.76;81.83
72116;BME280;59991;52.140;5.428;2022-08-21T02:50:23;101705.31;;;13.76;82.48
72116;BME280;59991;52.140;5.428;2022-08-21T02:51:01;101700.63;;;13.77;81.50
72116;BME280;59991;52.140;5.428;2022-08-21T02:51:33;101699.47;;;13.78;81.59
72116;BME280;59991;52.140;5.428;2022-08-21T02:52:04;101698.69;;;13.77;81.86
72116;BME280;59991;52.140;5.428;2022-08-21T02:52:36;101693.16;;;13.74;82.08
72116;BME280;59991;52.140;5.428;2022-08-21T02:53:11;101689.63;;;13.73;81.96
72116;BME280;59991;52.140;5.428;2022-08-21T02:53:46;101697.09;;;13.76;82.05
72116;BME280;59991;52.140;5.428;2022-08-21T02:54:18;101703.75;;;13.75;81.83
72116;BME280;59991;52.140;5.428;2022-08-21T02:54:50;101696.66;;;13.71;81.92
72116;BME280;59991;52.140;5.428;2022-08-21T02:55:40;101697.47;;;13.75;82.45
72116;BME280;59991;52.140;5.428;2022-08-21T02:56:14;101702.16;;;13.74;82.35
72116;BME280;59991;52.140;5.428;2022-08-21T02:56:46;101701.75;;;13.72;82.18
72116;BME280;59991;52.140;5.428;2022-08-21T02:57:17;101693.91;;;13.71;81.76
72116;BME280;59991;52.140;5.428;2022-08-21T02:57:49;101690.78;;;13.72;82.19
72116;BME280;59991;52.140;5.428;2022-08-21T02:58:27;101689.59;;;13.70;81.80
72116;BME280;59991;52.140;5.428;2022-08-21T02:58:59;101693.53;;;13.72;82.25
72116;BME280;59991;52.140;5.428;2022-08-21T02:59:49;101694.69;;;13.71;82.17
72116;BME280;59991;52.140;5.428;2022-08-21T03:00:22;101692.69;;;13.68;81.99
72116;BME280;59991;52.140;5.428;2022-08-21T03:00:54;101692.69;;;13.68;82.14
72116;BME280;59991;52.140;5.428;2022-08-21T03:01:26;101693.88;;;13.67;81.65
72116;BME280;59991;52.140;5.428;2022-08-21T03:01:58;101695.03;;;13.66;82.44
72116;BME280;59991;52.140;5.428;2022-08-21T03:02:29;101694.28;;;13.66;82.30
72116;BME280;59991;52.140;5.428;2022-08-21T03:03:01;101699.34;;;13.67;81.98
72116;BME280;59991;52.140;5.428;2022-08-21T03:03:32;101696.59;;;13.67;82.06
72116;BME280;59991;52.140;5.428;2022-08-21T03:04:06;101692.69;;;13.68;82.48
72116;BME280;59991;52.140;5.428;2022-08-21T03:04:38;101692.69;;;13.68;82.11
72116;BME280;59991;52.140;5.428;2022-08-21T03:05:17;101690.34;;;13.67;82.06
72116;BME280;59991;52.140;5.428;2022-08-21T03:05:48;101687.59;;;13.67;81.46
72116;BME280;59991;52.140;5.428;2022-08-21T03:06:21;101690.75;;;13.69;82.33
72116;BME280;59991;52.140;5.428;2022-08-21T03:06:53;101685.66;;;13.67;81.71
72116;BME280;59991;52.140;5.428;2022-08-21T03:07:24;101684.06;;;13.66;81.74
72116;BME280;59991;52.140;5.428;2022-08-21T03:07:57;101684.06;;;13.66;82.35
72116;BME280;59991;52.140;5.428;2022-08-21T03:08:29;101690.75;;;13.65;81.68
72116;BME280;59991;52.140;5.428;2022-08-21T03:09:01;101683.28;;;13.62;82.17
72116;BME280;59991;52.140;5.428;2022-08-21T03:09:32;101693.84;;;13.64;82.10
72116;BME280;59991;52.140;5.428;2022-08-21T03:10:05;101686.44;;;13.64;82.06